sensor_id;sensor_type;location;lat;lon;timestamp;temperature;humidity
7648;DHT22;3866;48.020;11.720;2023-08-08T00:01:09;11.20;99.90
7648;DHT22;3866;48.020;11.720;2023-08-08T00:03:37;11.20;99.90
7648;DHT22;3866;48.020;11.720;2023-08-08T00:06:04;11.10;99.90
7648;DHT22;3866;48.020;11.720;2023-08-08T00:08:31;11.10;99.90
7648;DHT22;3866;48.020;11.720;2023-08-08T00:10:58;11.20;99.90
7648;DHT22;3866;48.020;11.720;2023-08-08T00:13:25;11.10;99.90
7648;DHT22;3866;48.020;11.720;2023-08-08T00:15:52;11.00;99.90
7648;DHT22;3866;48.020;11.720;2023-08-08T00:18:18;11.10;99.90
7648;DHT22;3866;48.020;11.720;2023-08-08T00:20:47;11.10;99.90
7648;DHT22;3866;48.020;11.720;2023-08-08T00:23:13;11.20;99.90
7648;DHT22;3866;48.020;11.720;2023-08-08T00:25:40;11.20;99.90
7648;DHT22;3866;48.020;11.720;2023-08-08T00:28:07;11.20;99.90
7648;DHT22;3866;48.020;11.720;2023-08-08T00:30:34;11.30;99.90
7648;DHT22;3866;48.020;11.720;2023-08-08T00:33:01;11.40;99.90
7648;DHT22;3866;48.020;11.720;2023-08-08T00:35:28;11.40;99.90
7648;DHT22;3866;48.020;11.720;2023-08-08T00:37:56;11.40;99.90
7648;DHT22;3866;48.020;11.720;2023-08-08T00:40:23;11.40;99.90
7648;DHT22;3866;48.020;11.720;2023-08-08T00:42:49;11.40;99.90
7648;DHT22;3866;48.020;11.720;2023-08-08T00:45:16;11.50;99.90
7648;DHT22;3866;48.020;11.720;2023-08-08T00:47:43;11.50;99.90
7648;DHT22;3866;48.020;11.720;2023-08-08T00:50:11;11.50;99.90
7648;DHT22;3866;48.020;11.720;2023-08-08T00:52:40;11.50;99.90
7648;DHT22;3866;48.020;11.720;2023-08-08T00:55:09;11.50;99.90
7648;DHT22;3866;48.020;11.720;2023-08-08T00:57:36;11.60;99.90
7648;DHT22;3866;48.020;11.720;2023-08-08T01:00:05;11.60;99.90
7648;DHT22;3866;48.020;11.720;2023-08-08T01:02:33;11.60;99.90
7648;DHT22;3866;48.020;11.720;2023-08-08T01:05:00;11.60;99.90
7648;DHT22;3866;48.020;11.720;2023-08-08T01:07:32;11.50;99.90
7648;DHT22;3866;48.020;11.720;2023-08-08T01:10:03;11.50;99.90
7648;DHT22;3866;48.020;11.720;2023-08-08T01:12:38;11.70;99.90
7648;DHT22;3866;48.020;11.720;2023-08-08T01:15:07;11.70;99.90
7648;DHT22;3866;48.020;11.720;2023-08-08T01:17:35;11.70;99.90
7648;DHT22;3866;48.020;11.720;2023-08-08T01:20:03;11.80;99.90
7648;DHT22;3866;48.020;11.720;2023-08-08T01:22:36;11.70;99.90
7648;DHT22;3866;48.020;11.720;2023-08-08T01:25:07;11.80;99.90
7648;DHT22;3866;48.020;11.720;2023-08-08T01:27:34;11.80;99.90
7648;DHT22;3866;48.020;11.720;2023-08-08T01:30:01;11.80;99.90
7648;DHT22;3866;48.020;11.720;2023-08-08T01:32:29;11.70;99.90
7648;DHT22;3866;48.020;11.720;2023-08-08T01:34:56;11.70;99.90
7648;DHT22;3866;48.020;11.720;2023-08-08T01:37:28;11.70;99.90
7648;DHT22;3866;48.020;11.720;2023-08-08T01:39:57;11.70;99.90
7648;DHT22;3866;48.020;11.720;2023-08-08T01:42:27;11.70;99.90
7648;DHT22;3866;48.020;11.720;2023-08-08T01:44:55;11.70;99.90
7648;DHT22;3866;48.020;11.720;2023-08-08T01:47:23;11.60;99.90
7648;DHT22;3866;48.020;11.720;2023-08-08T01:49:50;11.50;99.90
7648;DHT22;3866;48.020;11.720;2023-08-08T01:52:17;11.50;99.90
7648;DHT22;3866;48.020;11.720;2023-08-08T01:54:44;11.50;99.90
7648;DHT22;3866;48.020;11.720;2023-08-08T01:57:10;11.60;99.90
7648;DHT22;3866;48.020;11.720;2023-08-08T01:59:39;11.70;99.90
7648;DHT22;3866;48.020;11.720;2023-08-08T02:02:06;11.60;99.90
7648;DHT22;3866;48.020;11.720;2023-08-08T02:04:33;11.60;99.90
7648;DHT22;3866;48.020;11.720;2023-08-08T02:07:00;11.70;99.90
7648;DHT22;3866;48.020;11.720;2023-08-08T02:09:26;11.60;99.90
7648;DHT22;3866;48.020;11.720;2023-08-08T02:11:53;11.50;99.90
7648;DHT22;3866;48.020;11.720;2023-08-08T02:14:20;11.30;99.90
7648;DHT22;3866;48.020;11.720;2023-08-08T02:16:48;11.30;99.90
7648;DHT22;3866;48.020;11.720;2023-08-08T02:19:15;11.40;99.90
7648;DHT22;3866;48.020;11.720;2023-08-08T02:21:42;11.40;99.90
7648;DHT22;3866;48.020;11.720;2023-08-08T02:24:09;11.40;99.90
7648;DHT22;3866;48.020;11.720;2023-08-08T02:26:37;11.30;99.90
7648;DHT22;3866;48.020;11.720;2023-08-08T02:29:03;11.20;99.90
7648;DHT22;3866;48.020;11.720;2023-08-08T02:31:30;11.40;99.90
7648;DHT22;3866;48.020;11.720;2023-08-08T02:33:59;11.30;99.90
7648;DHT22;3866;48.020;11.720;2023-08-08T02:36:25;11.30;99.90
7648;DHT22;3866;48.020;11.720;2023-08-08T02:38:52;11.20;99.90
7648;DHT22;3866;48.020;11.720;2023-08-08T02:41:19;11.20;99.90
7648;DHT22;3866;48.020;11.720;2023-08-08T02:43:46;11.20;99.90
7648;DHT22;3866;48.020;11.720;2023-08-08T02:46:13;11.10;99.90
7648;DHT22;3866;48.020;11.720;2023-08-08T02:48:40;11.10;99.90
7648;DHT22;3866;48.020;11.720;2023-08-08T02:51:08;11.10;99.90
7648;DHT22;3866;48.020;11.720;2023-08-08T02:53:35;11.10;99.90
7648;DHT22;3866;48.020;11.720;2023-08-08T02:56:02;11.00;99.90
7648;DHT22;3866;48.020;11.720;2023-08-08T02:58:29;11.00;99.90
7648;DHT22;3866;48.020;11.720;2023-08-08T03:00:56;10.90;99.90
7648;DHT22;3866;48.020;11.720;2023-08-08T03:03:23;11.00;99.90
7648;DHT22;3866;48.020;11.720;2023-08-08T03:05:50;10.90;99.90
7648;DHT22;3866;48.020;11.720;2023-08-08T03:08:18;10.80;99.90
7648;DHT22;3866;48.020;11.720;2023-08-08T03:10:45;10.80;99.90
7648;DHT22;3866;48.020;11.720;2023-08-08T03:13:12;10.80;99.90
7648;DHT22;3866;48.020;11.720;2023-08-08T03:15:39;10.70;99.90
7648;DHT22;3866;48.020;11.720;2023-08-08T03:18:06;10.80;99.90
7648;DHT22;3866;48.020;11.720;2023-08-08T03:20:33;10.80;99.90
7648;DHT22;3866;48.020;11.720;2023-08-08T03:23:00;10.70;99.90
7648;DHT22;3866;48.020;11.720;2023-08-08T03:25:28;10.60;99.90
7648;DHT22;3866;48.020;11.720;2023-08-08T03:27:55;10.60;99.90
7648;DHT22;3866;48.020;11.720;2023-08-08T03:30:22;10.60;99.90
7648;DHT22;3866;48.020;11.720;2023-08-08T03:32:48;10.60;99.90
7648;DHT22;3866;48.020;11.720;2023-08-08T03:35:15;10.60;99.90
7648;DHT22;3866;48.020;11.720;2023-08-08T03:37:42;10.60;99.90
7648;DHT22;3866;48.020;11.720;2023-08-08T03:40:10;10.60;99.90
7648;DHT22;3866;48.020;11.720;2023-08-08T03:42:39;10.80;99.90
7648;DHT22;3866;48.020;11.720;2023-08-08T03:45:06;10.80;99.90
7648;DHT22;3866;48.020;11.720;2023-08-08T03:47:33;10.70;99.90
7648;DHT22;3866;48.020;11.720;2023-08-08T03:50:00;10.70;99.90
7648;DHT22;3866;48.020;11.720;2023-08-08T03:52:27;10.80;99.90
7648;DHT22;3866;48.020;11.720;2023-08-08T03:54:54;10.80;99.90
7648;DHT22;3866;48.020;11.720;2023-08-08T03:57:21;10.90;99.90
7648;DHT22;3866;48.020;11.720;2023-08-08T03:59:49;10.90;99.90
7648;DHT22;3866;48.020;11.720;2023-08-08T04:02:16;10.90;99.90
7648;DHT22;3866;48.020;11.720;2023-08-08T04:04:43;11.00;99.90
7648;DHT22;3866;48.020;11.720;2023-08-08T04:07:10;11.00;99.90
7648;DHT22;3866;48.020;11.720;2023-08-08T04:09:37;11.00;99.90
7648;DHT22;3866;48.020;11.720;2023-08-08T04:12:04;10.90;99.90
7648;DHT22;3866;48.020;11.720;2023-08-08T04:14:31;10.80;99.90
7648;DHT22;3866;48.020;11.720;2023-08-08T04:16:59;10.70;99.90
7648;DHT22;3866;48.020;11.720;2023-08-08T04:19:26;10.70;99.90
7648;DHT22;3866;48.020;11.720;2023-08-08T04:21:53;10.80;99.90
7648;DHT22;3866;48.020;11.720;2023-08-08T04:24:20;10.80;99.90
7648;DHT22;3866;48.020;11.720;2023-08-08T04:26:47;10.90;99.90
7648;DHT22;3866;48.020;11.720;2023-08-08T04:29:14;11.00;99.90
7648;DHT22;3866;48.020;11.720;2023-08-08T04:31:40;10.90;99.90
7648;DHT22;3866;48.020;11.720;2023-08-08T04:34:09;11.00;99.90
7648;DHT22;3866;48.020;11.720;2023-08-08T04:36:36;11.00;99.90
7648;DHT22;3866;48.020;11.720;2023-08-08T04:39:03;11.00;99.90
7648;DHT22;3866;48.020;11.720;2023-08-08T04:41:30;11.00;99.90
7648;DHT22;3866;48.020;11.720;2023-08-08T04:43:57;11.00;99.90
7648;DHT22;3866;48.020;11.720;2023-08-08T04:46:24;11.00;99.90
7648;DHT22;3866;48.020;11.720;2023-08-08T04:48:50;11.10;99.90
7648;DHT22;3866;48.020;11.720;2023-08-08T04:51:19;11.20;99.90
7648;DHT22;3866;48.020;11.720;2023-08-08T04:53:46;11.20;99.90
7648;DHT22;3866;48.020;11.720;2023-08-08T04:56:12;11.20;99.90
7648;DHT22;3866;48.020;11.720;2023-08-08T04:58:39;11.30;99.90
7648;DHT22;3866;48.020;11.720;2023-08-08T05:01:06;11.40;99.90
7648;DHT22;3866;48.020;11.720;2023-08-08T05:03:34;11.40;99.90
7648;DHT22;3866;48.020;11.720;2023-08-08T05:06:01;11.50;99.90
7648;DHT22;3866;48.020;11.720;2023-08-08T05:08:29;11.50;99.90
7648;DHT22;3866;48.020;11.720;2023-08-08T05:10:56;11.40;99.90
7648;DHT22;3866;48.020;11.720;2023-08-08T05:13:25;11.50;99.90
7648;DHT22;3866;48.020;11.720;2023-08-08T05:15:52;11.50;99.90
7648;DHT22;3866;48.020;11.720;2023-08-08T05:18:19;11.60;99.90
7648;DHT22;3866;48.020;11.720;2023-08-08T05:20:46;11.70;99.90
7648;DHT22;3866;48.020;11.720;2023-08-08T05:23:13;11.70;99.90
7648;DHT22;3866;48.020;11.720;2023-08-08T05:25:41;11.80;99.90
7648;DHT22;3866;48.020;11.720;2023-08-08T05:28:08;11.90;99.90
7648;DHT22;3866;48.020;11.720;2023-08-08T05:30:35;11.90;99.90
7648;DHT22;3866;48.020;11.720;2023-08-08T05:33:02;12.00;99.90
7648;DHT22;3866;48.020;11.720;2023-08-08T05:35:30;11.90;99.90
7648;DHT22;3866;48.020;11.720;2023-08-08T05:37:57;11.90;99.90
7648;DHT22;3866;48.020;11.720;2023-08-08T05:40:24;12.10;99.90
7648;DHT22;3866;48.020;11.720;2023-08-08T05:42:52;12.10;99.90
7648;DHT22;3866;48.020;11.720;2023-08-08T05:45:19;12.20;99.90
7648;DHT22;3866;48.020;11.720;2023-08-08T05:47:46;12.20;99.90
7648;DHT22;3866;48.020;11.720;2023-08-08T05:50:13;12.30;99.90
7648;DHT22;3866;48.020;11.720;2023-08-08T05:52:39;12.50;99.90
7648;DHT22;3866;48.020;11.720;2023-08-08T05:55:07;12.70;99.90
7648;DHT22;3866;48.020;11.720;2023-08-08T05:57:34;12.80;99.90
7648;DHT22;3866;48.020;11.720;2023-08-08T06:00:02;12.90;99.90
7648;DHT22;3866;48.020;11.720;2023-08-08T06:02:30;12.90;99.90
7648;DHT22;3866;48.020;11.720;2023-08-08T06:04:57;12.90;99.90
7648;DHT22;3866;48.020;11.720;2023-08-08T06:07:24;12.80;99.90
7648;DHT22;3866;48.020;11.720;2023-08-08T06:09:51;12.90;99.90
7648;DHT22;3866;48.020;11.720;2023-08-08T06:12:18;12.80;99.90
7648;DHT22;3866;48.020;11.720;2023-08-08T06:14:45;12.80;99.90
7648;DHT22;3866;48.020;11.720;2023-08-08T06:17:14;13.00;99.90
7648;DHT22;3866;48.020;11.720;2023-08-08T06:19:41;13.00;99.90
7648;DHT22;3866;48.020;11.720;2023-08-08T06:22:08;13.00;99.90
7648;DHT22;3866;48.020;11.720;2023-08-08T06:24:35;13.20;99.90
7648;DHT22;3866;48.020;11.720;2023-08-08T06:27:02;13.30;99.90
7648;DHT22;3866;48.020;11.720;2023-08-08T06:29:29;13.20;99.90
7648;DHT22;3866;48.020;11.720;2023-08-08T06:31:56;13.40;99.90
7648;DHT22;3866;48.020;11.720;2023-08-08T06:34:24;13.50;99.90
7648;DHT22;3866;48.020;11.720;2023-08-08T06:36:51;13.80;99.90
7648;DHT22;3866;48.020;11.720;2023-08-08T06:39:18;14.00;99.90
7648;DHT22;3866;48.020;11.720;2023-08-08T06:41:47;14.30;99.90
7648;DHT22;3866;48.020;11.720;2023-08-08T06:44:13;14.50;99.90
7648;DHT22;3866;48.020;11.720;2023-08-08T06:46:40;14.70;99.90
7648;DHT22;3866;48.020;11.720;2023-08-08T06:49:09;14.80;99.90
7648;DHT22;3866;48.020;11.720;2023-08-08T06:51:37;14.90;99.90
7648;DHT22;3866;48.020;11.720;2023-08-08T06:54:04;15.00;99.90
7648;DHT22;3866;48.020;11.720;2023-08-08T06:56:33;14.80;99.90
7648;DHT22;3866;48.020;11.720;2023-08-08T06:59:00;14.90;99.90
7648;DHT22;3866;48.020;11.720;2023-08-08T07:01:27;15.40;99.90
7648;DHT22;3866;48.020;11.720;2023-08-08T07:03:54;15.70;99.90
7648;DHT22;3866;48.020;11.720;2023-08-08T07:06:21;16.10;99.90
7648;DHT22;3866;48.020;11.720;2023-08-08T07:08:49;16.20;99.90
7648;DHT22;3866;48.020;11.720;2023-08-08T07:11:16;16.80;99.90
7648;DHT22;3866;48.020;11.720;2023-08-08T07:13:43;17.50;99.90
7648;DHT22;3866;48.020;11.720;2023-08-08T07:16:09;17.70;99.90
7648;DHT22;3866;48.020;11.720;2023-08-08T07:18:36;17.10;99.90
7648;DHT22;3866;48.020;11.720;2023-08-08T07:21:03;17.20;99.90
7648;DHT22;3866;48.020;11.720;2023-08-08T07:37:39;18.30;99.90
7648;DHT22;3866;48.020;11.720;2023-08-08T07:40:14;18.10;99.90
7648;DHT22;3866;48.020;11.720;2023-08-08T07:42:43;18.40;99.90
7648;DHT22;3866;48.020;11.720;2023-08-08T07:45:10;18.30;99.90
7648;DHT22;3866;48.020;11.720;2023-08-08T07:47:37;18.20;99.90
7648;DHT22;3866;48.020;11.720;2023-08-08T08:04:12;18.70;99.90
7648;DHT22;3866;48.020;11.720;2023-08-08T08:06:39;19.10;99.90
7648;DHT22;3866;48.020;11.720;2023-08-08T08:09:06;19.30;99.90
7648;DHT22;3866;48.020;11.720;2023-08-08T08:11:33;19.00;99.90
7648;DHT22;3866;48.020;11.720;2023-08-08T08:14:00;18.90;99.90
7648;DHT22;3866;48.020;11.720;2023-08-08T08:16:27;18.90;99.90
7648;DHT22;3866;48.020;11.720;2023-08-08T08:18:54;18.90;99.90
7648;DHT22;3866;48.020;11.720;2023-08-08T08:21:22;19.20;99.90
7648;DHT22;3866;48.020;11.720;2023-08-08T08:37:58;18.90;99.90
7648;DHT22;3866;48.020;11.720;2023-08-08T08:40:25;19.60;99.90
7648;DHT22;3866;48.020;11.720;2023-08-08T08:42:53;19.80;99.90
7648;DHT22;3866;48.020;11.720;2023-08-08T08:45:20;20.10;99.90
7648;DHT22;3866;48.020;11.720;2023-08-08T08:47:49;21.20;99.90
7648;DHT22;3866;48.020;11.720;2023-08-08T08:50:20;20.10;99.90
7648;DHT22;3866;48.020;11.720;2023-08-08T08:52:47;20.30;99.90
7648;DHT22;3866;48.020;11.720;2023-08-08T08:55:15;20.10;99.90
7648;DHT22;3866;48.020;11.720;2023-08-08T08:57:43;19.80;99.90
7648;DHT22;3866;48.020;11.720;2023-08-08T09:00:12;19.00;99.90
7648;DHT22;3866;48.020;11.720;2023-08-08T09:02:39;18.40;99.90
7648;DHT22;3866;48.020;11.720;2023-08-08T09:05:07;18.90;99.90
7648;DHT22;3866;48.020;11.720;2023-08-08T09:07:35;18.90;99.90
7648;DHT22;3866;48.020;11.720;2023-08-08T09:10:03;18.40;99.90
7648;DHT22;3866;48.020;11.720;2023-08-08T09:12:31;18.40;99.90
7648;DHT22;3866;48.020;11.720;2023-08-08T09:15:01;18.50;99.90
7648;DHT22;3866;48.020;11.720;2023-08-08T09:17:30;18.50;99.90
7648;DHT22;3866;48.020;11.720;2023-08-08T09:19:57;18.50;99.90
7648;DHT22;3866;48.020;11.720;2023-08-08T09:22:24;18.30;99.90
7648;DHT22;3866;48.020;11.720;2023-08-08T09:24:52;18.50;99.90
7648;DHT22;3866;48.020;11.720;2023-08-08T09:27:19;18.70;99.90
7648;DHT22;3866;48.020;11.720;2023-08-08T09:29:47;18.70;99.90
7648;DHT22;3866;48.020;11.720;2023-08-08T09:32:14;18.70;99.90
7648;DHT22;3866;48.020;11.720;2023-08-08T09:34:43;18.60;99.90
7648;DHT22;3866;48.020;11.720;2023-08-08T09:37:11;18.80;99.90
7648;DHT22;3866;48.020;11.720;2023-08-08T09:39:40;18.90;99.90
7648;DHT22;3866;48.020;11.720;2023-08-08T09:42:07;18.50;99.90
7648;DHT22;3866;48.020;11.720;2023-08-08T09:44:37;18.60;99.90
7648;DHT22;3866;48.020;11.720;2023-08-08T09:47:05;18.60;99.90
7648;DHT22;3866;48.020;11.720;2023-08-08T09:49:32;18.70;99.90
7648;DHT22;3866;48.020;11.720;2023-08-08T09:52:02;19.00;99.90
7648;DHT22;3866;48.020;11.720;2023-08-08T09:54:30;18.90;99.90
7648;DHT22;3866;48.020;11.720;2023-08-08T09:56:58;18.80;99.90
7648;DHT22;3866;48.020;11.720;2023-08-08T09:59:26;18.90;99.90
7648;DHT22;3866;48.020;11.720;2023-08-08T10:01:53;19.30;99.90
7648;DHT22;3866;48.020;11.720;2023-08-08T10:04:23;19.20;99.90
7648;DHT22;3866;48.020;11.720;2023-08-08T10:06:50;19.10;99.90
7648;DHT22;3866;48.020;11.720;2023-08-08T10:09:18;19.10;99.90
7648;DHT22;3866;48.020;11.720;2023-08-08T10:11:46;19.10;99.90
7648;DHT22;3866;48.020;11.720;2023-08-08T10:14:13;19.10;99.90
7648;DHT22;3866;48.020;11.720;2023-08-08T10:16:42;19.10;99.90
7648;DHT22;3866;48.020;11.720;2023-08-08T10:19:10;19.10;99.90
7648;DHT22;3866;48.020;11.720;2023-08-08T10:21:43;19.40;99.90
7648;DHT22;3866;48.020;11.720;2023-08-08T10:24:10;19.40;99.90
7648;DHT22;3866;48.020;11.720;2023-08-08T10:26:51;19.50;99.90
7648;DHT22;3866;48.020;11.720;2023-08-08T10:29:19;19.60;99.90
7648;DHT22;3866;48.020;11.720;2023-08-08T10:31:52;19.70;99.90
7648;DHT22;3866;48.020;11.720;2023-08-08T10:34:20;19.60;99.90
7648;DHT22;3866;48.020;11.720;2023-08-08T10:36:52;19.30;99.90
7648;DHT22;3866;48.020;11.720;2023-08-08T10:39:20;19.40;99.90
7648;DHT22;3866;48.020;11.720;2023-08-08T10:41:49;19.60;99.90
7648;DHT22;3866;48.020;11.720;2023-08-08T10:44:23;19.60;99.90
7648;DHT22;3866;48.020;11.720;2023-08-08T10:46:53;19.40;99.90
7648;DHT22;3866;48.020;11.720;2023-08-08T10:49:20;19.40;99.90
7648;DHT22;3866;48.020;11.720;2023-08-08T10:51:49;19.20;99.90
7648;DHT22;3866;48.020;11.720;2023-08-08T10:54:22;19.30;99.90
7648;DHT22;3866;48.020;11.720;2023-08-08T10:56:54;19.60;99.90
7648;DHT22;3866;48.020;11.720;2023-08-08T10:59:22;19.80;99.90
7648;DHT22;3866;48.020;11.720;2023-08-08T11:01:51;19.90;99.90
7648;DHT22;3866;48.020;11.720;2023-08-08T11:04:19;20.10;99.90
7648;DHT22;3866;48.020;11.720;2023-08-08T11:06:47;19.90;99.90
7648;DHT22;3866;48.020;11.720;2023-08-08T11:09:16;20.10;99.90
7648;DHT22;3866;48.020;11.720;2023-08-08T11:11:45;20.10;99.90
7648;DHT22;3866;48.020;11.720;2023-08-08T11:14:15;20.30;99.90
7648;DHT22;3866;48.020;11.720;2023-08-08T11:16:43;20.30;99.90
7648;DHT22;3866;48.020;11.720;2023-08-08T11:19:11;20.30;99.90
7648;DHT22;3866;48.020;11.720;2023-08-08T11:21:40;20.20;99.90
7648;DHT22;3866;48.020;11.720;2023-08-08T11:24:08;20.30;99.90
7648;DHT22;3866;48.020;11.720;2023-08-08T11:26:36;20.50;99.90
7648;DHT22;3866;48.020;11.720;2023-08-08T11:29:05;20.50;99.90
7648;DHT22;3866;48.020;11.720;2023-08-08T11:31:34;20.40;99.90
7648;DHT22;3866;48.020;11.720;2023-08-08T11:34:01;20.60;99.90
7648;DHT22;3866;48.020;11.720;2023-08-08T11:36:30;20.90;99.90
7648;DHT22;3866;48.020;11.720;2023-08-08T11:38:57;21.30;99.90
7648;DHT22;3866;48.020;11.720;2023-08-08T11:41:26;21.60;99.90
7648;DHT22;3866;48.020;11.720;2023-08-08T11:43:53;21.70;99.90
7648;DHT22;3866;48.020;11.720;2023-08-08T11:46:24;21.90;99.90
7648;DHT22;3866;48.020;11.720;2023-08-08T11:48:52;21.70;99.90
7648;DHT22;3866;48.020;11.720;2023-08-08T11:51:19;21.80;99.90
7648;DHT22;3866;48.020;11.720;2023-08-08T11:53:51;22.00;99.90
7648;DHT22;3866;48.020;11.720;2023-08-08T11:56:19;22.30;99.90
7648;DHT22;3866;48.020;11.720;2023-08-08T11:58:47;22.40;99.90
7648;DHT22;3866;48.020;11.720;2023-08-08T12:01:16;22.40;99.90
7648;DHT22;3866;48.020;11.720;2023-08-08T12:03:46;22.80;99.90
7648;DHT22;3866;48.020;11.720;2023-08-08T12:06:13;22.80;99.90
7648;DHT22;3866;48.020;11.720;2023-08-08T12:08:42;22.70;99.90
7648;DHT22;3866;48.020;11.720;2023-08-08T12:11:09;22.60;99.90
7648;DHT22;3866;48.020;11.720;2023-08-08T12:13:37;22.30;99.90
7648;DHT22;3866;48.020;11.720;2023-08-08T12:16:05;22.40;99.90
7648;DHT22;3866;48.020;11.720;2023-08-08T12:18:33;23.20;99.90
7648;DHT22;3866;48.020;11.720;2023-08-08T12:21:01;23.10;99.90
7648;DHT22;3866;48.020;11.720;2023-08-08T12:23:28;22.80;99.90
7648;DHT22;3866;48.020;11.720;2023-08-08T12:25:55;23.20;99.90
7648;DHT22;3866;48.020;11.720;2023-08-08T12:28:23;23.10;99.90
7648;DHT22;3866;48.020;11.720;2023-08-08T12:30:50;23.50;99.90
7648;DHT22;3866;48.020;11.720;2023-08-08T12:33:17;23.20;99.90
7648;DHT22;3866;48.020;11.720;2023-08-08T12:35:44;23.20;99.90
7648;DHT22;3866;48.020;11.720;2023-08-08T12:38:12;23.00;99.90
7648;DHT22;3866;48.020;11.720;2023-08-08T12:40:39;23.20;99.90
7648;DHT22;3866;48.020;11.720;2023-08-08T12:43:06;23.30;99.90
7648;DHT22;3866;48.020;11.720;2023-08-08T12:45:33;23.60;99.90
7648;DHT22;3866;48.020;11.720;2023-08-08T12:48:00;23.90;99.90
7648;DHT22;3866;48.020;11.720;2023-08-08T12:50:27;23.50;99.90
7648;DHT22;3866;48.020;11.720;2023-08-08T12:52:54;23.60;99.90
7648;DHT22;3866;48.020;11.720;2023-08-08T12:55:22;23.50;99.90
7648;DHT22;3866;48.020;11.720;2023-08-08T12:57:49;23.80;99.90
7648;DHT22;3866;48.020;11.720;2023-08-08T13:00:16;23.70;99.90
7648;DHT22;3866;48.020;11.720;2023-08-08T13:02:43;24.00;99.90
7648;DHT22;3866;48.020;11.720;2023-08-08T13:05:10;24.20;99.90
7648;DHT22;3866;48.020;11.720;2023-08-08T13:07:37;24.40;99.90
7648;DHT22;3866;48.020;11.720;2023-08-08T13:10:05;23.50;99.90
7648;DHT22;3866;48.020;11.720;2023-08-08T13:12:34;23.60;99.90
7648;DHT22;3866;48.020;11.720;2023-08-08T13:15:01;23.70;99.90
7648;DHT22;3866;48.020;11.720;2023-08-08T13:17:29;23.10;99.90
7648;DHT22;3866;48.020;11.720;2023-08-08T13:19:57;23.70;99.90
7648;DHT22;3866;48.020;11.720;2023-08-08T13:22:24;24.30;99.90
7648;DHT22;3866;48.020;11.720;2023-08-08T13:24:51;23.90;99.90
7648;DHT22;3866;48.020;11.720;2023-08-08T13:27:17;23.10;99.90
7648;DHT22;3866;48.020;11.720;2023-08-08T13:29:46;23.10;99.90
7648;DHT22;3866;48.020;11.720;2023-08-08T13:32:13;23.40;99.90
7648;DHT22;3866;48.020;11.720;2023-08-08T13:34:39;23.40;99.90
7648;DHT22;3866;48.020;11.720;2023-08-08T13:37:06;23.30;99.90
7648;DHT22;3866;48.020;11.720;2023-08-08T13:39:33;23.70;99.90
7648;DHT22;3866;48.020;11.720;2023-08-08T13:42:00;23.40;99.90
7648;DHT22;3866;48.020;11.720;2023-08-08T13:44:27;23.40;99.90
7648;DHT22;3866;48.020;11.720;2023-08-08T13:46:55;23.40;99.90
7648;DHT22;3866;48.020;11.720;2023-08-08T13:49:23;23.30;99.90
7648;DHT22;3866;48.020;11.720;2023-08-08T13:51:51;23.00;99.90
7648;DHT22;3866;48.020;11.720;2023-08-08T13:54:19;23.40;99.90
7648;DHT22;3866;48.020;11.720;2023-08-08T13:56:46;23.40;99.90
7648;DHT22;3866;48.020;11.720;2023-08-08T13:59:13;22.80;99.90
7648;DHT22;3866;48.020;11.720;2023-08-08T14:01:40;22.80;99.90
7648;DHT22;3866;48.020;11.720;2023-08-08T14:04:09;22.60;99.90
7648;DHT22;3866;48.020;11.720;2023-08-08T14:06:35;22.50;99.90
7648;DHT22;3866;48.020;11.720;2023-08-08T14:09:03;22.40;99.90
7648;DHT22;3866;48.020;11.720;2023-08-08T14:11:30;22.40;99.90
7648;DHT22;3866;48.020;11.720;2023-08-08T14:13:57;22.30;99.90
7648;DHT22;3866;48.020;11.720;2023-08-08T14:16:24;22.30;99.90
7648;DHT22;3866;48.020;11.720;2023-08-08T14:18:51;22.60;99.90
7648;DHT22;3866;48.020;11.720;2023-08-08T14:21:19;22.30;99.90
7648;DHT22;3866;48.020;11.720;2023-08-08T14:23:46;22.30;99.90
7648;DHT22;3866;48.020;11.720;2023-08-08T14:26:13;22.70;99.90
7648;DHT22;3866;48.020;11.720;2023-08-08T14:28:40;22.70;99.90
7648;DHT22;3866;48.020;11.720;2023-08-08T14:31:07;22.60;99.90
7648;DHT22;3866;48.020;11.720;2023-08-08T14:33:34;22.20;99.90
7648;DHT22;3866;48.020;11.720;2023-08-08T14:36:01;22.10;99.90
7648;DHT22;3866;48.020;11.720;2023-08-08T14:38:34;21.90;99.90
7648;DHT22;3866;48.020;11.720;2023-08-08T14:41:02;21.80;99.90
7648;DHT22;3866;48.020;11.720;2023-08-08T14:43:29;22.10;99.90
7648;DHT22;3866;48.020;11.720;2023-08-08T14:45:56;22.10;99.90
7648;DHT22;3866;48.020;11.720;2023-08-08T14:48:23;22.20;99.90
7648;DHT22;3866;48.020;11.720;2023-08-08T14:50:50;22.20;99.90
7648;DHT22;3866;48.020;11.720;2023-08-08T14:53:17;22.20;99.90
7648;DHT22;3866;48.020;11.720;2023-08-08T14:55:45;22.00;99.90
7648;DHT22;3866;48.020;11.720;2023-08-08T14:58:13;22.30;99.90
7648;DHT22;3866;48.020;11.720;2023-08-08T15:00:40;22.60;99.90
7648;DHT22;3866;48.020;11.720;2023-08-08T15:03:08;22.90;99.90
7648;DHT22;3866;48.020;11.720;2023-08-08T15:05:35;22.80;99.90
7648;DHT22;3866;48.020;11.720;2023-08-08T15:08:03;22.60;99.90
7648;DHT22;3866;48.020;11.720;2023-08-08T15:10:30;22.50;99.90
7648;DHT22;3866;48.020;11.720;2023-08-08T15:12:58;22.30;99.90
7648;DHT22;3866;48.020;11.720;2023-08-08T15:15:25;22.30;99.90
7648;DHT22;3866;48.020;11.720;2023-08-08T15:17:53;22.10;99.90
7648;DHT22;3866;48.020;11.720;2023-08-08T15:20:20;22.10;99.90
7648;DHT22;3866;48.020;11.720;2023-08-08T15:22:47;22.30;99.90
7648;DHT22;3866;48.020;11.720;2023-08-08T15:25:14;22.50;99.90
7648;DHT22;3866;48.020;11.720;2023-08-08T15:27:41;22.30;99.90
7648;DHT22;3866;48.020;11.720;2023-08-08T15:30:10;22.20;99.90
7648;DHT22;3866;48.020;11.720;2023-08-08T15:32:38;22.20;99.90
7648;DHT22;3866;48.020;11.720;2023-08-08T15:35:05;22.40;99.90
7648;DHT22;3866;48.020;11.720;2023-08-08T15:37:32;22.20;99.90
7648;DHT22;3866;48.020;11.720;2023-08-08T15:39:59;22.20;99.90
7648;DHT22;3866;48.020;11.720;2023-08-08T15:42:26;21.60;99.90
7648;DHT22;3866;48.020;11.720;2023-08-08T15:44:53;21.50;99.90
7648;DHT22;3866;48.020;11.720;2023-08-08T15:47:21;21.60;99.90
7648;DHT22;3866;48.020;11.720;2023-08-08T15:49:48;21.70;99.90
7648;DHT22;3866;48.020;11.720;2023-08-08T15:52:15;21.80;99.90
7648;DHT22;3866;48.020;11.720;2023-08-08T15:54:42;21.90;99.90
7648;DHT22;3866;48.020;11.720;2023-08-08T15:57:09;22.00;99.90
7648;DHT22;3866;48.020;11.720;2023-08-08T15:59:36;21.60;99.90
7648;DHT22;3866;48.020;11.720;2023-08-08T16:02:07;21.30;99.90
7648;DHT22;3866;48.020;11.720;2023-08-08T16:04:36;21.60;99.90
7648;DHT22;3866;48.020;11.720;2023-08-08T16:07:02;21.80;99.90
7648;DHT22;3866;48.020;11.720;2023-08-08T16:09:30;21.40;99.90
7648;DHT22;3866;48.020;11.720;2023-08-08T16:11:57;21.20;99.90
7648;DHT22;3866;48.020;11.720;2023-08-08T16:14:24;20.90;99.90
7648;DHT22;3866;48.020;11.720;2023-08-08T16:16:51;20.90;99.90
7648;DHT22;3866;48.020;11.720;2023-08-08T16:19:17;21.00;99.90
7648;DHT22;3866;48.020;11.720;2023-08-08T16:21:46;20.90;99.90
7648;DHT22;3866;48.020;11.720;2023-08-08T16:24:13;21.00;99.90
7648;DHT22;3866;48.020;11.720;2023-08-08T16:26:39;20.90;99.90
7648;DHT22;3866;48.020;11.720;2023-08-08T16:29:06;20.90;99.90